createdAt,value
2023-08-18T00:00:49.613Z,1005.18
2023-08-18T00:01:49.493Z,1005.21
2023-08-18T00:02:49.528Z,1005.18
2023-08-18T00:03:49.562Z,1005.14
2023-08-18T00:04:49.422Z,1005.14
2023-08-18T00:05:49.433Z,1005.10
2023-08-18T00:06:49.393Z,1005.15
2023-08-18T00:07:49.394Z,1005.14
2023-08-18T00:08:49.602Z,1005.08
2023-08-18T00:09:49.389Z,1005.10
2023-08-18T00:10:49.343Z,1005.10
2023-08-18T00:11:49.333Z,1005.07
2023-08-18T00:12:49.354Z,1005.09
2023-08-18T00:13:49.340Z,1005.12
2023-08-18T00:14:49.313Z,1005.05
2023-08-18T00:15:49.372Z,1005.07
2023-08-18T00:16:49.280Z,1005.02
2023-08-18T00:17:49.300Z,1005.07
2023-08-18T00:18:49.632Z,1005.03
2023-08-18T00:19:49.250Z,1005.09
2023-08-18T00:20:49.211Z,1005.06
2023-08-18T00:21:49.201Z,1005.07
2023-08-18T00:22:49.186Z,1005.03
2023-08-18T00:23:49.204Z,1005.00
2023-08-18T00:24:49.167Z,1005.01
2023-08-18T00:25:49.168Z,1005.02
2023-08-18T00:26:49.285Z,1005.04
2023-08-18T00:27:49.118Z,1005.06
2023-08-18T00:28:49.132Z,1005.01
2023-08-18T00:29:49.120Z,1005.04
2023-08-18T00:30:49.113Z,1005.00
2023-08-18T00:31:49.073Z,1005.04
2023-08-18T00:32:49.140Z,1005.02
2023-08-18T00:33:49.067Z,1004.99
2023-08-18T00:34:49.042Z,1004.96
2023-08-18T00:35:49.012Z,1004.94
2023-08-18T00:36:49.023Z,1005.00
2023-08-18T00:37:49.015Z,1004.95
2023-08-18T00:38:49.040Z,1004.93
2023-08-18T00:39:48.998Z,1004.96
2023-08-18T00:40:48.992Z,1004.97
2023-08-18T00:41:48.972Z,1004.98
2023-08-18T00:42:48.919Z,1005.05
2023-08-18T00:43:48.981Z,1005.00
2023-08-18T00:44:48.922Z,1005.01
2023-08-18T00:45:48.953Z,1005.01
2023-08-18T00:46:48.881Z,1005.02
2023-08-18T00:47:48.898Z,1005.05
2023-08-18T00:48:48.852Z,1005.06
2023-08-18T00:49:48.899Z,1005.00
2023-08-18T00:50:48.819Z,1004.98
2023-08-18T00:51:48.841Z,1005.07
2023-08-18T00:52:48.788Z,1005.06
2023-08-18T00:53:48.779Z,1005.02
2023-08-18T00:54:48.771Z,1005.07
2023-08-18T00:55:48.809Z,1005.10
2023-08-18T00:56:48.772Z,1005.09
2023-08-18T00:57:48.804Z,1005.15
2023-08-18T00:58:48.729Z,1005.09
2023-08-18T00:59:48.711Z,1005.08
2023-08-18T01:00:48.830Z,1005.00
2023-08-18T01:01:48.705Z,1005.06
2023-08-18T01:02:48.724Z,1005.06
2023-08-18T01:03:48.720Z,1004.99
2023-08-18T01:04:48.638Z,1004.92
2023-08-18T01:05:48.643Z,1004.98
2023-08-18T01:06:48.637Z,1005.01
2023-08-18T01:07:48.621Z,1004.96
2023-08-18T01:08:48.610Z,1004.95
2023-08-18T01:09:48.604Z,1004.94
2023-08-18T01:10:48.577Z,1004.94
2023-08-18T01:11:48.576Z,1004.91
2023-08-18T01:12:48.527Z,1004.88
2023-08-18T01:13:48.562Z,1004.84
2023-08-18T01:14:48.517Z,1004.91
2023-08-18T01:15:48.490Z,1004.90
2023-08-18T01:16:48.557Z,1004.85
2023-08-18T01:17:48.529Z,1004.93
2023-08-18T01:18:48.485Z,1004.88
2023-08-18T01:19:48.444Z,1004.81
2023-08-18T01:20:48.466Z,1004.76
2023-08-18T01:21:48.411Z,1004.77
2023-08-18T01:22:48.403Z,1004.78
2023-08-18T01:23:48.387Z,1004.80
2023-08-18T01:24:48.400Z,1004.75
2023-08-18T01:25:48.386Z,1004.78
2023-08-18T01:26:48.534Z,1004.72
2023-08-18T01:27:48.360Z,1004.75
2023-08-18T01:28:48.347Z,1004.75
2023-08-18T01:29:48.346Z,1004.78
2023-08-18T01:30:48.410Z,1004.72
2023-08-18T01:31:48.368Z,1004.75
2023-08-18T01:32:48.353Z,1004.69
2023-08-18T01:33:48.284Z,1004.67
2023-08-18T01:34:48.242Z,1004.65
2023-08-18T01:35:48.265Z,1004.72
2023-08-18T01:36:48.230Z,1004.69
2023-08-18T01:37:48.208Z,1004.67
2023-08-18T01:38:48.339Z,1004.68
2023-08-18T01:39:48.198Z,1004.66
2023-08-18T01:40:48.174Z,1004.74
2023-08-18T01:41:48.168Z,1004.67
2023-08-18T01:42:48.150Z,1004.68
2023-08-18T01:43:48.123Z,1004.63
2023-08-18T01:44:48.133Z,1004.59
2023-08-18T01:45:48.100Z,1004.63
2023-08-18T01:46:48.237Z,1004.63
2023-08-18T01:47:48.108Z,1004.59
2023-08-18T01:48:48.090Z,1004.57
2023-08-18T01:49:48.055Z,1004.48
2023-08-18T01:50:48.166Z,1004.62
2023-08-18T01:51:48.044Z,1004.53
2023-08-18T01:52:48.022Z,1004.52
2023-08-18T01:53:48.020Z,1004.58
2023-08-18T01:54:48.013Z,1004.47
2023-08-18T01:55:47.970Z,1004.55
2023-08-18T01:56:48.016Z,1004.57
2023-08-18T01:57:47.966Z,1004.57
2023-08-18T01:58:47.941Z,1004.53
2023-08-18T01:59:47.948Z,1004.52
2023-08-18T02:00:47.903Z,1004.54
2023-08-18T02:01:47.938Z,1004.54
2023-08-18T02:02:47.951Z,1004.53
2023-08-18T02:03:47.968Z,1004.51
2023-08-18T02:04:47.855Z,1004.46
2023-08-18T02:05:47.832Z,1004.50
2023-08-18T02:06:47.870Z,1004.46
2023-08-18T02:07:47.840Z,1004.44
2023-08-18T02:08:47.843Z,1004.46
2023-08-18T02:09:47.786Z,1004.39
2023-08-18T02:10:47.795Z,1004.35
2023-08-18T02:11:47.787Z,1004.38
2023-08-18T02:12:47.806Z,1004.36
2023-08-18T02:13:47.758Z,1004.33
2023-08-18T02:14:47.729Z,1004.38
2023-08-18T02:15:47.762Z,1004.35
2023-08-18T02:16:47.689Z,1004.38
2023-08-18T02:17:47.690Z,1004.36
2023-08-18T02:18:47.722Z,1004.35
2023-08-18T02:19:47.676Z,1004.37
2023-08-18T02:20:47.678Z,1004.31
2023-08-18T02:21:47.628Z,1004.31
2023-08-18T02:22:47.623Z,1004.24
2023-08-18T02:23:47.595Z,1004.25
2023-08-18T02:24:47.749Z,1004.34
2023-08-18T02:25:47.585Z,1004.23
2023-08-18T02:26:47.605Z,1004.30
2023-08-18T02:27:47.555Z,1004.38
2023-08-18T02:28:47.558Z,1004.36
2023-08-18T02:29:47.572Z,1004.27
2023-08-18T02:30:47.536Z,1004.31
2023-08-18T02:31:47.597Z,1004.31
2023-08-18T02:32:47.515Z,1004.30
2023-08-18T02:33:47.495Z,1004.36
2023-08-18T02:34:47.485Z,1004.34
2023-08-18T02:35:47.487Z,1004.32
2023-08-18T02:36:47.465Z,1004.29
2023-08-18T02:37:47.416Z,1004.35
2023-08-18T02:38:47.419Z,1004.21
2023-08-18T02:39:47.388Z,1004.23
2023-08-18T02:40:47.409Z,1004.24
2023-08-18T02:41:47.392Z,1004.28
2023-08-18T02:42:47.394Z,1004.32
2023-08-18T02:43:47.367Z,1004.30
2023-08-18T02:44:47.369Z,1004.29
2023-08-18T02:45:47.322Z,1004.21
2023-08-18T02:46:47.303Z,1004.28
2023-08-18T02:47:47.326Z,1004.26
2023-08-18T02:48:47.319Z,1004.30
2023-08-18T02:49:47.262Z,1004.30
2023-08-18T02:50:47.269Z,1004.27
2023-08-18T02:51:47.263Z,1004.26
2023-08-18T02:52:47.244Z,1004.28
2023-08-18T02:53:47.291Z,1004.18
2023-08-18T02:54:47.193Z,1004.25
2023-08-18T02:55:47.213Z,1004.21
2023-08-18T02:56:47.217Z,1004.24
2023-08-18T02:57:47.175Z,1004.25
2023-08-18T02:58:47.142Z,1004.25
2023-08-18T02:59:47.180Z,1004.29
2023-08-18T03:00:47.122Z,1004.29
2023-08-18T03:01:47.310Z,1004.25
2023-08-18T03:02:47.124Z,1004.31
2023-08-18T03:03:47.155Z,1004.23
2023-08-18T03:04:47.057Z,1004.28
2023-08-18T03:05:47.084Z,1004.34
2023-08-18T03:06:47.071Z,1004.31
2023-08-18T03:07:47.029Z,1004.26
2023-08-18T03:08:47.045Z,1004.32
2023-08-18T03:09:47.022Z,1004.27
2023-08-18T03:10:47.009Z,1004.20
2023-08-18T03:11:46.974Z,1004.27
2023-08-18T03:12:46.979Z,1004.31
2023-08-18T03:13:46.997Z,1004.29
2023-08-18T03:14:46.939Z,1004.28
2023-08-18T03:15:47.067Z,1004.31
2023-08-18T03:16:46.913Z,1004.30
2023-08-18T03:17:47.019Z,1004.35
2023-08-18T03:18:47.102Z,1004.30
2023-08-18T03:19:46.975Z,1004.21
2023-08-18T03:20:46.882Z,1004.30
2023-08-18T03:21:46.888Z,1004.31
2023-08-18T03:22:46.905Z,1004.32
2023-08-18T03:23:46.854Z,1004.32
2023-08-18T03:24:46.847Z,1004.29
2023-08-18T03:25:46.822Z,1004.28
2023-08-18T03:26:46.790Z,1004.29
2023-08-18T03:27:46.786Z,1004.26
2023-08-18T03:28:46.758Z,1004.35
2023-08-18T03:29:46.739Z,1004.33
2023-08-18T03:32:06.857Z,1004.30
2023-08-18T03:33:05.712Z,1004.24
2023-08-18T03:34:05.648Z,1004.29
2023-08-18T03:35:05.632Z,1004.23
2023-08-18T03:36:05.625Z,1004.20
2023-08-18T03:37:05.635Z,1004.24
2023-08-18T03:38:05.677Z,1004.25
2023-08-18T03:39:05.600Z,1004.25
2023-08-18T03:40:05.579Z,1004.25
2023-08-18T03:41:05.911Z,1004.26
2023-08-18T03:42:05.541Z,1004.30
2023-08-18T03:43:05.551Z,1004.32
2023-08-18T03:44:05.521Z,1004.32
2023-08-18T03:45:05.522Z,1004.28
2023-08-18T03:46:05.552Z,1004.28
2023-08-18T03:47:05.474Z,1004.31
2023-08-18T03:48:05.527Z,1004.29
2023-08-18T03:49:05.515Z,1004.23
2023-08-18T03:50:05.464Z,1004.28
2023-08-18T03:51:05.426Z,1004.30
2023-08-18T03:52:05.452Z,1004.33
2023-08-18T03:53:05.430Z,1004.28
2023-08-18T03:54:05.427Z,1004.27
2023-08-18T03:55:05.414Z,1004.29
2023-08-18T03:56:05.427Z,1004.29
2023-08-18T03:57:05.379Z,1004.28
2023-08-18T03:58:05.346Z,1004.27
2023-08-18T03:59:05.338Z,1004.30
2023-08-18T04:00:05.305Z,1004.27
2023-08-18T04:01:05.336Z,1004.25
2023-08-18T04:02:05.309Z,1004.25
2023-08-18T04:03:05.340Z,1004.24
2023-08-18T04:04:05.284Z,1004.28
2023-08-18T04:05:05.285Z,1004.24
2023-08-18T04:06:05.270Z,1004.29
2023-08-18T04:07:05.252Z,1004.29
2023-08-18T04:08:05.233Z,1004.30
2023-08-18T04:09:05.202Z,1004.25
2023-08-18T04:10:05.216Z,1004.25
2023-08-18T04:11:05.174Z,1004.19
2023-08-18T04:12:05.188Z,1004.22
2023-08-18T04:13:05.183Z,1004.18
2023-08-18T04:14:05.138Z,1004.14
2023-08-18T04:15:05.148Z,1004.20
2023-08-18T04:16:05.159Z,1004.21
2023-08-18T04:17:05.139Z,1004.23
2023-08-18T04:18:05.102Z,1004.28
2023-08-18T04:19:05.075Z,1004.25
2023-08-18T04:20:05.066Z,1004.25
2023-08-18T04:21:05.087Z,1004.21
2023-08-18T04:22:05.060Z,1004.20
2023-08-18T04:23:05.047Z,1004.18
2023-08-18T04:24:05.030Z,1004.24
2023-08-18T04:25:04.983Z,1004.15
2023-08-18T04:26:04.967Z,1004.17
2023-08-18T04:27:04.997Z,1004.22
2023-08-18T04:28:04.973Z,1004.19
2023-08-18T04:29:04.955Z,1004.19
2023-08-18T04:30:04.955Z,1004.16
2023-08-18T04:31:04.959Z,1004.19
2023-08-18T04:32:04.893Z,1004.18
2023-08-18T04:33:04.943Z,1004.19
2023-08-18T04:34:04.892Z,1004.19
2023-08-18T04:35:04.929Z,1004.23
2023-08-18T04:36:05.130Z,1004.22
2023-08-18T04:37:04.850Z,1004.17
2023-08-18T04:38:04.844Z,1004.20
2023-08-18T04:39:04.817Z,1004.26
2023-08-18T04:40:04.801Z,1004.27
2023-08-18T04:41:04.790Z,1004.22
2023-08-18T04:42:04.806Z,1004.16
2023-08-18T04:43:04.751Z,1004.30
2023-08-18T04:44:04.728Z,1004.27
2023-08-18T04:45:04.740Z,1004.27
2023-08-18T04:46:04.719Z,1004.30
2023-08-18T04:47:04.773Z,1004.35
2023-08-18T04:48:04.715Z,1004.26
2023-08-18T04:49:04.853Z,1004.31
2023-08-18T04:50:04.677Z,1004.30
2023-08-18T04:51:04.663Z,1004.24
2023-08-18T04:52:04.677Z,1004.25
2023-08-18T04:53:04.759Z,1004.25
2023-08-18T04:54:04.628Z,1004.23
2023-08-18T04:55:04.642Z,1004.31
2023-08-18T04:56:04.723Z,1004.28
2023-08-18T04:57:04.591Z,1004.29
2023-08-18T04:58:04.561Z,1004.28
2023-08-18T04:59:04.562Z,1004.19
2023-08-18T05:00:04.546Z,1004.23
2023-08-18T05:01:04.592Z,1004.18
2023-08-18T05:02:04.510Z,1004.26
2023-08-18T05:03:04.594Z,1004.27
2023-08-18T05:04:04.496Z,1004.22
2023-08-18T05:05:04.452Z,1004.23
2023-08-18T05:06:04.460Z,1004.23
2023-08-18T05:07:05.431Z,1004.15
2023-08-18T05:08:04.437Z,1004.17
2023-08-18T05:09:04.428Z,1004.20
2023-08-18T05:10:04.399Z,1004.17
2023-08-18T05:11:04.380Z,1004.16
2023-08-18T05:12:04.404Z,1004.14
2023-08-18T05:13:04.415Z,1004.12
2023-08-18T05:14:04.340Z,1004.13
2023-08-18T05:15:04.322Z,1004.12
2023-08-18T05:16:04.462Z,1004.16
2023-08-18T05:17:04.322Z,1004.23
2023-08-18T05:18:04.325Z,1004.17
2023-08-18T05:19:04.297Z,1004.23
2023-08-18T05:20:04.257Z,1004.17
2023-08-18T05:21:04.247Z,1004.13
2023-08-18T05:22:04.250Z,1004.16
2023-08-18T05:23:04.246Z,1004.17
2023-08-18T05:24:04.218Z,1004.17
2023-08-18T05:25:04.218Z,1004.20
2023-08-18T05:26:04.185Z,1004.19
2023-08-18T05:27:04.198Z,1004.23
2023-08-18T05:28:04.182Z,1004.24
2023-08-18T05:29:04.163Z,1004.20
2023-08-18T05:30:04.182Z,1004.21
2023-08-18T05:31:04.201Z,1004.16
2023-08-18T05:32:04.163Z,1004.20
2023-08-18T05:33:04.169Z,1004.15
2023-08-18T05:34:04.080Z,1004.19
2023-08-18T05:35:04.063Z,1004.21
2023-08-18T05:36:04.078Z,1004.19
2023-08-18T05:37:04.056Z,1004.20
2023-08-18T05:38:04.070Z,1004.21
2023-08-18T05:39:04.012Z,1004.22
2023-08-18T05:40:04.026Z,1004.13
2023-08-18T05:41:04.071Z,1004.17
2023-08-18T05:42:03.989Z,1004.19
2023-08-18T05:43:03.947Z,1004.15
2023-08-18T05:44:04.055Z,1004.16
2023-08-18T05:45:03.930Z,1004.14
2023-08-18T05:46:03.934Z,1004.22
2023-08-18T05:47:03.923Z,1004.18
2023-08-18T05:48:03.893Z,1004.16
2023-08-18T05:49:03.878Z,1004.22
2023-08-18T05:50:03.908Z,1004.29
2023-08-18T05:51:03.854Z,1004.24
2023-08-18T05:52:03.858Z,1004.17
2023-08-18T05:53:03.829Z,1004.11
2023-08-18T05:54:03.814Z,1004.10
2023-08-18T05:55:03.788Z,1004.12
2023-08-18T05:56:03.837Z,1004.16
2023-08-18T05:57:03.768Z,1004.16
2023-08-18T05:58:03.850Z,1004.12
2023-08-18T05:59:03.740Z,1004.20
2023-08-18T06:00:03.751Z,1004.20
2023-08-18T06:01:03.737Z,1004.25
2023-08-18T06:02:03.717Z,1004.16
2023-08-18T06:03:03.767Z,1004.15
2023-08-18T06:04:03.768Z,1004.22
2023-08-18T06:05:03.653Z,1004.16
2023-08-18T06:06:06.783Z,1004.12
2023-08-18T06:07:03.662Z,1004.18
2023-08-18T06:08:03.627Z,1004.20
2023-08-18T06:09:03.649Z,1004.22
2023-08-18T06:10:03.614Z,1004.25
2023-08-18T06:11:03.612Z,1004.27
2023-08-18T06:12:03.577Z,1004.22
2023-08-18T06:13:03.652Z,1004.23
2023-08-18T06:14:03.560Z,1004.27
2023-08-18T06:15:03.542Z,1004.19
2023-08-18T06:16:03.539Z,1004.26
2023-08-18T06:17:03.489Z,1004.22
2023-08-18T06:18:03.534Z,1004.26
2023-08-18T06:19:03.495Z,1004.19
2023-08-18T06:20:03.464Z,1004.17
2023-08-18T06:21:03.506Z,1004.22
2023-08-18T06:22:03.468Z,1004.22
2023-08-18T06:23:03.453Z,1004.27
2023-08-18T06:24:03.414Z,1004.27
2023-08-18T06:25:03.424Z,1004.29
2023-08-18T06:26:03.399Z,1004.33
2023-08-18T06:27:03.369Z,1004.34
2023-08-18T06:28:03.360Z,1004.35
2023-08-18T06:29:03.358Z,1004.33
2023-08-18T06:30:03.392Z,1004.35
2023-08-18T06:31:03.339Z,1004.38
2023-08-18T06:32:04.065Z,1004.38
2023-08-18T06:33:03.316Z,1004.39
2023-08-18T06:34:03.297Z,1004.44
2023-08-18T06:35:03.283Z,1004.47
2023-08-18T06:36:03.344Z,1004.43
2023-08-18T06:37:03.238Z,1004.47
2023-08-18T06:38:03.242Z,1004.47
2023-08-18T06:39:03.231Z,1004.50
2023-08-18T06:40:03.296Z,1004.53
2023-08-18T06:41:03.180Z,1004.48
2023-08-18T06:42:03.247Z,1004.51
2023-08-18T06:43:03.177Z,1004.51
2023-08-18T06:44:03.148Z,1004.56
2023-08-18T06:45:03.128Z,1004.56
2023-08-18T06:46:03.192Z,1004.54
2023-08-18T06:47:03.124Z,1004.52
2023-08-18T06:48:03.148Z,1004.51
2023-08-18T06:49:03.103Z,1004.56
2023-08-18T06:50:03.086Z,1004.51
2023-08-18T06:51:03.077Z,1004.52
2023-08-18T06:52:03.050Z,1004.51
2023-08-18T06:53:03.047Z,1004.49
2023-08-18T06:54:03.025Z,1004.48
2023-08-18T06:55:03.005Z,1004.51
2023-08-18T06:56:03.655Z,1004.49
2023-08-18T06:57:02.982Z,1004.49
2023-08-18T06:58:02.960Z,1004.46
2023-08-18T06:59:02.982Z,1004.42
2023-08-18T07:00:02.949Z,1004.42
2023-08-18T07:01:02.983Z,1004.43
2023-08-18T07:02:02.905Z,1004.42
2023-08-18T07:03:02.973Z,1004.44
2023-08-18T07:04:02.899Z,1004.40
2023-08-18T07:05:02.885Z,1004.38
2023-08-18T07:06:02.881Z,1004.34
2023-08-18T07:07:02.834Z,1004.34
2023-08-18T07:08:02.814Z,1004.36
2023-08-18T07:09:02.812Z,1004.39
2023-08-18T07:10:02.824Z,1004.40
2023-08-18T07:11:02.801Z,1004.37
2023-08-18T07:12:02.815Z,1004.43
2023-08-18T07:13:02.825Z,1004.43
2023-08-18T07:14:02.775Z,1004.39
2023-08-18T07:15:02.734Z,1004.47
2023-08-18T07:16:02.777Z,1004.45
2023-08-18T07:17:02.709Z,1004.54
2023-08-18T07:18:02.732Z,1004.50
2023-08-18T07:19:02.689Z,1004.45
2023-08-18T07:20:02.668Z,1004.48
2023-08-18T07:21:02.681Z,1004.50
2023-08-18T07:22:02.701Z,1004.52
2023-08-18T07:23:02.658Z,1004.55
2023-08-18T07:24:02.634Z,1004.55
2023-08-18T07:25:02.626Z,1004.55
2023-08-18T07:26:02.585Z,1004.46
2023-08-18T07:27:02.606Z,1004.47
2023-08-18T07:28:02.589Z,1004.53
2023-08-18T07:29:02.571Z,1004.48
2023-08-18T07:30:02.525Z,1004.54
2023-08-18T07:31:02.550Z,1004.54
2023-08-18T07:32:02.525Z,1004.55
2023-08-18T07:33:02.517Z,1004.50
2023-08-18T07:34:02.516Z,1004.48
2023-08-18T07:35:02.482Z,1004.56
2023-08-18T07:36:02.446Z,1004.50
2023-08-18T07:37:02.448Z,1004.53
2023-08-18T07:38:02.439Z,1004.50
2023-08-18T07:39:02.408Z,1004.51
2023-08-18T07:40:02.436Z,1004.52
2023-08-18T07:41:02.398Z,1004.54
2023-08-18T07:42:02.375Z,1004.56
2023-08-18T07:43:02.348Z,1004.51
2023-08-18T07:44:02.385Z,1004.48
2023-08-18T07:45:02.321Z,1004.47
2023-08-18T07:46:02.391Z,1004.42
2023-08-18T07:47:02.328Z,1004.43
2023-08-18T07:48:02.430Z,1004.37
2023-08-18T07:49:02.339Z,1004.35
2023-08-18T07:50:02.278Z,1004.37
2023-08-18T07:51:02.248Z,1004.40
2023-08-18T07:52:02.232Z,1004.39
2023-08-18T07:53:02.254Z,1004.36
2023-08-18T07:54:02.246Z,1004.40
2023-08-18T07:55:02.194Z,1004.36
2023-08-18T07:56:02.187Z,1004.32
2023-08-18T07:57:02.907Z,1004.38
2023-08-18T07:58:02.170Z,1004.33
2023-08-18T07:59:02.146Z,1004.36
2023-08-18T08:00:02.144Z,1004.39
2023-08-18T08:01:02.184Z,1004.35
2023-08-18T08:02:04.398Z,1004.34
2023-08-18T08:03:02.169Z,1004.38
2023-08-18T08:04:02.085Z,1004.33
2023-08-18T08:05:02.068Z,1004.29
2023-08-18T08:06:02.053Z,1004.37
2023-08-18T08:07:02.072Z,1004.34
2023-08-18T08:08:02.027Z,1004.19
2023-08-18T08:09:02.065Z,1004.29
2023-08-18T08:10:02.039Z,1004.29
2023-08-18T08:11:02.020Z,1004.28
2023-08-18T08:12:01.977Z,1004.26
2023-08-18T08:13:02.002Z,1004.25
2023-08-18T08:14:01.949Z,1004.23
2023-08-18T08:15:01.957Z,1004.24
2023-08-18T08:16:01.959Z,1004.24
2023-08-18T08:17:01.945Z,1004.23
2023-08-18T08:18:02.000Z,1004.26
2023-08-18T08:19:01.883Z,1004.26
2023-08-18T08:20:01.879Z,1004.24
2023-08-18T08:21:01.874Z,1004.23
2023-08-18T08:22:01.888Z,1004.24
2023-08-18T08:23:01.866Z,1004.27
2023-08-18T08:24:01.845Z,1004.23
2023-08-18T08:25:01.889Z,1004.18
2023-08-18T08:26:01.820Z,1004.22
2023-08-18T08:27:01.783Z,1004.20
2023-08-18T08:28:01.765Z,1004.21
2023-08-18T08:29:01.764Z,1004.20
2023-08-18T08:30:03.071Z,1004.15
2023-08-18T08:31:05.977Z,1004.13
2023-08-18T08:32:01.755Z,1004.23
2023-08-18T08:33:01.827Z,1004.15
2023-08-18T08:34:01.739Z,1004.28
2023-08-18T08:35:01.680Z,1004.26
2023-08-18T08:36:01.820Z,1004.25
2023-08-18T08:37:01.695Z,1004.27
2023-08-18T08:38:01.665Z,1004.28
2023-08-18T08:39:01.632Z,1004.23
2023-08-18T08:40:01.672Z,1004.25
2023-08-18T08:41:01.643Z,1004.28
2023-08-18T08:42:01.645Z,1004.24
2023-08-18T08:43:04.767Z,1004.27
2023-08-18T08:44:07.811Z,1004.24
2023-08-18T08:45:02.565Z,1004.29
2023-08-18T08:46:01.622Z,1004.29
2023-08-18T08:47:01.616Z,1004.32
2023-08-18T08:48:01.614Z,1004.28
2023-08-18T08:49:01.505Z,1004.26
2023-08-18T08:50:01.499Z,1004.32
2023-08-18T08:51:01.510Z,1004.33
2023-08-18T08:52:01.515Z,1004.29
2023-08-18T08:53:01.490Z,1004.29
2023-08-18T08:54:03.752Z,1004.35
2023-08-18T08:55:06.957Z,1004.26
2023-08-18T08:56:09.295Z,1004.26
2023-08-18T08:57:02.450Z,1004.29
2023-08-18T08:58:01.394Z,1004.26
2023-08-18T08:59:01.379Z,1004.22
2023-08-18T09:00:01.371Z,1004.26
2023-08-18T09:01:01.398Z,1004.31
2023-08-18T09:02:01.356Z,1004.24
2023-08-18T09:03:01.542Z,1004.27
2023-08-18T09:04:01.344Z,1004.20
2023-08-18T09:05:01.335Z,1004.20
2023-08-18T09:06:01.276Z,1004.19
2023-08-18T09:07:01.316Z,1004.25
2023-08-18T09:08:01.292Z,1004.24
2023-08-18T09:09:03.610Z,1004.20
2023-08-18T09:10:01.257Z,1004.23
2023-08-18T09:11:01.269Z,1004.20
2023-08-18T09:12:01.216Z,1004.18
2023-08-18T09:13:01.240Z,1004.17
2023-08-18T09:14:01.211Z,1004.16
2023-08-18T09:15:01.180Z,1004.17
2023-08-18T09:16:01.182Z,1004.15
2023-08-18T09:17:01.201Z,1004.19
2023-08-18T09:18:01.175Z,1004.17
2023-08-18T09:19:01.154Z,1004.17
2023-08-18T09:20:01.262Z,1004.22
2023-08-18T09:21:01.149Z,1004.19
2023-08-18T09:22:01.087Z,1004.19
2023-08-18T09:23:01.110Z,1004.21
2023-08-18T09:24:04.902Z,1004.15
2023-08-18T09:25:01.071Z,1004.22
2023-08-18T09:26:01.049Z,1004.20
2023-08-18T09:27:01.051Z,1004.23
2023-08-18T09:28:03.581Z,1004.16
2023-08-18T09:29:00.987Z,1004.14
2023-08-18T09:30:00.975Z,1004.20
2023-08-18T09:31:01.022Z,1004.19
2023-08-18T09:32:00.949Z,1004.23
2023-08-18T09:33:00.993Z,1004.25
2023-08-18T09:34:00.970Z,1004.21
2023-08-18T09:35:00.911Z,1004.18
2023-08-18T09:36:00.929Z,1004.11
2023-08-18T09:37:00.919Z,1004.08
2023-08-18T09:38:00.892Z,1004.05
2023-08-18T09:39:00.918Z,1004.08
2023-08-18T09:40:00.873Z,1004.09
2023-08-18T09:41:00.852Z,1004.07
2023-08-18T09:42:00.816Z,1004.09
2023-08-18T09:43:05.329Z,1004.10
2023-08-18T09:44:01.841Z,1004.09
2023-08-18T09:45:00.904Z,1004.11
2023-08-18T09:46:00.822Z,1004.11
2023-08-18T09:47:00.785Z,1004.02
2023-08-18T09:48:00.798Z,1004.10
2023-08-18T09:49:00.731Z,1004.06
2023-08-18T09:50:00.747Z,1004.03
2023-08-18T09:51:00.746Z,1004.07
2023-08-18T09:52:00.691Z,1004.00
2023-08-18T09:53:00.685Z,1004.01
2023-08-18T09:54:00.705Z,1003.98
2023-08-18T09:55:00.693Z,1003.93
2023-08-18T09:56:00.643Z,1003.93
2023-08-18T09:57:00.652Z,1003.95
2023-08-18T09:58:00.608Z,1003.94
2023-08-18T09:59:00.631Z,1003.92
2023-08-18T10:00:00.589Z,1003.95
2023-08-18T10:01:00.595Z,1003.93
2023-08-18T10:02:00.605Z,1003.96
2023-08-18T10:03:00.673Z,1003.95
2023-08-18T10:04:00.567Z,1003.88
2023-08-18T10:05:00.617Z,1003.92
2023-08-18T10:06:00.510Z,1003.82
2023-08-18T10:07:00.512Z,1003.85
2023-08-18T10:08:00.531Z,1003.85
2023-08-18T10:09:00.487Z,1003.80
2023-08-18T10:10:00.490Z,1003.83
2023-08-18T10:11:00.590Z,1003.86
2023-08-18T10:12:00.436Z,1003.81
2023-08-18T10:13:00.442Z,1003.84
2023-08-18T10:14:00.478Z,1003.82
2023-08-18T10:15:00.429Z,1003.84
2023-08-18T10:16:00.433Z,1003.82
2023-08-18T10:17:00.548Z,1003.79
2023-08-18T10:18:00.407Z,1003.68
2023-08-18T10:19:00.387Z,1003.70
2023-08-18T10:20:00.333Z,1003.73
2023-08-18T10:21:00.354Z,1003.78
2023-08-18T10:22:00.350Z,1003.77
2023-08-18T10:23:00.321Z,1003.69
2023-08-18T10:24:00.271Z,1003.71
2023-08-18T10:25:00.267Z,1003.73
2023-08-18T10:26:00.258Z,1003.72
2023-08-18T10:27:00.246Z,1003.74
2023-08-18T10:28:00.294Z,1003.75
2023-08-18T10:29:00.247Z,1003.72
2023-08-18T10:30:00.370Z,1003.72
2023-08-18T10:31:00.190Z,1003.74
2023-08-18T10:32:00.211Z,1003.72
2023-08-18T10:33:00.203Z,1003.73
2023-08-18T10:34:00.162Z,1003.72
2023-08-18T10:35:00.166Z,1003.69
2023-08-18T10:36:00.161Z,1003.71
2023-08-18T10:37:00.169Z,1003.71
2023-08-18T10:38:00.160Z,1003.65
2023-08-18T10:39:00.117Z,1003.63
2023-08-18T10:40:00.119Z,1003.63
2023-08-18T10:41:00.049Z,1003.60
2023-08-18T10:42:00.081Z,1003.63
2023-08-18T10:43:00.103Z,1003.62
2023-08-18T10:44:00.058Z,1003.66
2023-08-18T10:45:00.052Z,1003.57
2023-08-18T10:46:00.089Z,1003.56
2023-08-18T10:47:00.009Z,1003.58
2023-08-18T10:48:00.026Z,1003.60
2023-08-18T10:48:59.973Z,1003.61
2023-08-18T10:49:59.953Z,1003.61
2023-08-18T10:50:59.943Z,1003.64
2023-08-18T10:51:59.927Z,1003.60
2023-08-18T10:52:59.962Z,1003.50
2023-08-18T10:53:59.916Z,1003.60
2023-08-18T10:54:59.912Z,1003.58
2023-08-18T10:55:59.904Z,1003.50
2023-08-18T10:56:59.853Z,1003.55
2023-08-18T10:57:59.889Z,1003.54
2023-08-18T10:58:59.869Z,1003.50
2023-08-18T10:59:59.844Z,1003.46
2023-08-18T11:00:59.864Z,1003.52
2023-08-18T11:02:00.802Z,1003.47
2023-08-18T11:02:59.859Z,1003.46
2023-08-18T11:03:59.807Z,1003.41
2023-08-18T11:04:59.942Z,1003.42
2023-08-18T11:05:59.789Z,1003.43
2023-08-18T11:06:59.760Z,1003.45
2023-08-18T11:07:59.727Z,1003.40
2023-08-18T11:08:59.744Z,1003.46
2023-08-18T11:09:59.716Z,1003.41
2023-08-18T11:10:59.812Z,1003.34
2023-08-18T11:11:59.705Z,1003.38
2023-08-18T11:13:00.030Z,1003.39
2023-08-18T11:13:59.641Z,1003.37
2023-08-18T11:14:59.650Z,1003.29
2023-08-18T11:15:59.674Z,1003.33
2023-08-18T11:16:59.660Z,1003.32
2023-08-18T11:17:59.629Z,1003.24
2023-08-18T11:18:59.575Z,1003.26
2023-08-18T11:19:59.579Z,1003.32
2023-08-18T11:20:59.567Z,1003.26
2023-08-18T11:21:59.543Z,1003.29
2023-08-18T11:22:59.527Z,1003.21
2023-08-18T11:23:59.538Z,1003.17
2023-08-18T11:24:59.514Z,1003.13
2023-08-18T11:25:59.523Z,1003.18
2023-08-18T11:26:59.478Z,1003.11
2023-08-18T11:27:59.455Z,1003.12
2023-08-18T11:28:59.483Z,1003.07
2023-08-18T11:29:59.433Z,1003.04
2023-08-18T11:30:59.442Z,1003.13
2023-08-18T11:31:59.453Z,1003.09
2023-08-18T11:32:59.456Z,1003.07
2023-08-18T11:33:59.386Z,1002.99
2023-08-18T11:34:59.377Z,1003.01
2023-08-18T11:35:59.397Z,1002.96
2023-08-18T11:36:59.365Z,1003.02
2023-08-18T11:37:59.376Z,1003.01
2023-08-18T11:38:59.338Z,1003.01
2023-08-18T11:39:59.338Z,1002.96
2023-08-18T11:40:59.320Z,1002.93
2023-08-18T11:41:59.273Z,1002.92
2023-08-18T11:42:59.272Z,1002.88
2023-08-18T11:43:59.308Z,1002.84
2023-08-18T11:44:59.248Z,1002.78
2023-08-18T11:45:59.236Z,1002.79
2023-08-18T11:46:59.251Z,1002.78
2023-08-18T11:47:59.227Z,1002.79
2023-08-18T11:48:59.198Z,1002.76
2023-08-18T11:49:59.200Z,1002.80
2023-08-18T11:50:59.182Z,1002.86
2023-08-18T11:51:59.164Z,1002.80
2023-08-18T11:52:59.148Z,1002.79
2023-08-18T11:53:59.171Z,1002.80
2023-08-18T11:54:59.170Z,1002.79
2023-08-18T11:55:59.127Z,1002.82
2023-08-18T11:56:59.114Z,1002.80
2023-08-18T11:57:59.081Z,1002.80
2023-08-18T11:58:59.071Z,1002.84
2023-08-18T11:59:59.119Z,1002.77
2023-08-18T12:00:59.071Z,1002.80
2023-08-18T12:01:59.089Z,1002.81
2023-08-18T12:02:59.146Z,1002.82
2023-08-18T12:03:59.047Z,1002.75
2023-08-18T12:04:59.018Z,1002.72
2023-08-18T12:05:59.301Z,1002.78
2023-08-18T12:06:59.012Z,1002.74